Shandaken, NY (12480)

7:51 PM EDT on August 03, 2015 (GMT -0400)
Downtown Pine Hill | | Change Station
CLOSE
Current Station
Personal Weather Station
Location: Pine Hill, NY
Elevation: 1680 ft
Nearby Weather Stations

Elev 1680 ft 42.13 °N, 74.48 °W | Updated 10 minutes ago

Mostly Cloudy
Mostly Cloudy
68.6 °F
Feels Like 68.6 °F
N
0.0
Wind Variable Wind from SSW
Gusts 1.0 mph

Today
High -- | Low -- °F
--% Chance of Precip.
Yesterday
High -- | Low -- °F
Precip. -- in
5:52 AM 8:14 PM
Waning Gibbous, 83% visible
Pressure 29.83 in
Visibility 10.0 miles
Clouds Clear
Dew Point 67 °F
Humidity 94%
Rainfall -999.00 in
Snow Depth Not available.
UV 0 out of 12
Pollen 8.40 out of 12
Air Quality Not available.
Flu Activity Not available.
METAR KMSV 032335Z AUTO 22004KT 10SM CLR 23/18 A2983 RMK AO1

More Conditions Fewer Conditions

Pressure 29.83 in
Visibility 10.0 miles
Clouds Clear
Dew Point 67 °F
Humidity 94%
Rainfall -999.00 in
Snow Depth Not available.
UV 0 out of 12
Pollen 8.40 out of 12
Air Quality Not available.
Flu Activity Not available.
METAR KMSV 032335Z AUTO 22004KT 10SM CLR 23/18 A2983 RMK AO1

More Conditions Fewer Conditions

10-Day Weather Forecast

×

Almanac

Astronomy

Aug. 03, 2015 Rise Set
Actual Time
Civil Twilight
Nautical Twilight
Astronomical Twilight
Moon
Length of Visible Light
Length of Day
Tomorrow will be .
, % of the Moon is Illuminated

Today's Extremes

State Highs State Lows

Community

WunderPhotos

Upload Photos

1,843,791 photos uploaded!

WunderBlogs® & News

Nearby

Air Quality

  Air Quality AQ Index Pollutant
Not available.

Snow Depth

Station Depth Elevation

Earthquake Activity

City Distance Mag. Time & Date
Minimum magnitude displayed is 2.5.

Coastal Water Temperatures

Place Temperature

Stations

Nearby Weather Stations

Station Location Temp. Windchill Dew Point Humidity Wind Precip. Elev Updated Type